Time;durP1;ratioP1;P1;durP2;ratioP2;P2;SDS_P1;SDS_P2;PMS_P1;PMS_P2;Temp;Humidity;BMP_temperature;BMP_pressure;BME280_temperature;BME280_humidity;BME280_pressure;Samples;Min_cycle;Max_cycle;Signal;HPM_P1;HPM_P2
2022/03/31 00:00:40;;;;;;;1.00;0.43;;;4.00;99.90;;;;;;5059330;28;20052;-86
2022/03/31 00:03:09;;;;;;;0.00;0.00;;;3.80;99.90;;;;;;5075772;28;20052;-86
2022/03/31 00:05:36;;;;;;;0.00;0.00;;;3.80;99.90;;;;;;5075665;28;20440;-85
2022/03/31 00:08:08;;;;;;;0.00;0.00;;;3.90;99.90;;;;;;5058906;28;20059;-84
2022/03/31 00:10:36;;;;;;;0.10;0.10;;;3.80;99.90;;;;;;5058922;28;20048;-84
2022/03/31 00:13:05;;;;;;;0.00;0.00;;;3.80;99.90;;;;;;5075561;28;20127;-86
2022/03/31 00:15:32;;;;;;;0.00;0.00;;;3.80;99.90;;;;;;5075662;28;20395;-85
2022/03/31 00:18:00;;;;;;;0.00;0.00;;;3.70;99.90;;;;;;5075408;28;20052;-85
2022/03/31 00:20:26;;;;;;;0.00;0.00;;;4.10;99.90;;;;;;5074797;28;20441;-84
2022/03/31 00:22:52;;;;;;;0.00;0.00;;;3.70;99.90;;;;;;5075371;28;20056;-85
2022/03/31 00:25:18;;;;;;;0.00;0.00;;;3.70;99.90;;;;;;5058683;28;20094;-85
2022/03/31 00:27:44;;;;;;;0.00;0.00;;;3.70;99.90;;;;;;5075315;28;20044;-85
2022/03/31 00:30:13;;;;;;;0.00;0.00;;;3.70;99.90;;;;;;5058841;28;20051;-86
2022/03/31 00:32:40;;;;;;;0.00;0.00;;;3.70;99.90;;;;;;5075112;28;20044;-86
2022/03/31 00:35:07;;;;;;;0.00;0.00;;;3.80;99.90;;;;;;5058388;28;20048;-86
2022/03/31 00:37:33;;;;;;;0.00;0.00;;;3.70;99.90;;;;;;5058173;28;20091;-88
2022/03/31 00:39:59;;;;;;;0.00;0.00;;;3.80;99.90;;;;;;5057987;28;20088;-87
2022/03/31 00:42:25;;;;;;;0.00;0.00;;;3.50;99.90;;;;;;5074184;28;20087;-87
2022/03/31 00:44:52;;;;;;;0.00;0.00;;;3.60;99.90;;;;;;5058175;28;20225;-87
2022/03/31 00:47:19;;;;;;;0.00;0.00;;;3.60;99.90;;;;;;5058221;28;20052;-86
2022/03/31 00:49:45;;;;;;;0.00;0.00;;;3.50;99.90;;;;;;5057925;28;20085;-87
2022/03/31 00:52:14;;;;;;;0.00;0.00;;;3.50;99.90;;;;;;5057982;28;20041;-89
2022/03/31 00:54:41;;;;;;;0.00;0.00;;;3.40;99.90;;;;;;5058771;28;20048;-88
2022/03/31 00:57:21;;;;;;;0.00;0.00;;;3.40;99.90;;;;;;5058649;28;20040;-88
2022/03/31 00:59:47;;;;;;;0.00;0.00;;;3.30;99.90;;;;;;5058232;28;20076;-87
2022/03/31 01:02:14;;;;;;;0.00;0.00;;;3.30;99.90;;;;;;5057786;28;20067;-87
2022/03/31 01:04:40;;;;;;;0.00;0.00;;;3.30;99.90;;;;;;5075088;28;20133;-89
2022/03/31 01:07:06;;;;;;;0.00;0.00;;;3.20;99.90;;;;;;5057915;28;20102;-89
2022/03/31 01:09:32;;;;;;;0.00;0.00;;;3.10;99.90;;;;;;5058326;28;20052;-89
2022/03/31 01:12:01;;;;;;;0.00;0.00;;;4.00;99.90;;;;;;5074591;28;20476;-88
2022/03/31 01:14:28;;;;;;;0.00;0.00;;;3.00;99.90;;;;;;5057836;28;20388;-88
2022/03/31 01:16:56;;;;;;;0.00;0.00;;;4.30;99.90;;;;;;5057469;28;20131;-88
2022/03/31 01:19:22;;;;;;;0.00;0.00;;;3.00;99.90;;;;;;5057373;28;20044;-88
2022/03/31 01:21:48;;;;;;;0.00;0.00;;;3.00;99.90;;;;;;5057951;28;20098;-88
2022/03/31 01:24:18;;;;;;;0.00;0.00;;;2.90;99.90;;;;;;5057645;28;20044;-88
2022/03/31 01:26:44;;;;;;;0.00;0.00;;;3.00;99.90;;;;;;5074287;28;20388;-88
2022/03/31 01:29:13;;;;;;;0.00;0.00;;;2.90;99.90;;;;;;5057454;28;20044;-88
2022/03/31 01:31:39;;;;;;;0.00;0.00;;;2.90;99.90;;;;;;5057747;28;20051;-87
2022/03/31 01:34:08;;;;;;;0.00;0.00;;;3.20;99.90;;;;;;5057687;28;20052;-87
2022/03/31 01:36:37;;;;;;;0.00;0.00;;;3.00;99.90;;;;;;5074022;28;20438;-88
2022/03/31 01:39:04;;;;;;;0.00;0.00;;;3.10;99.90;;;;;;5057060;28;20045;-88
2022/03/31 01:41:30;;;;;;;0.00;0.00;;;2.90;99.90;;;;;;5057305;28;20071;-88
2022/03/31 01:43:56;;;;;;;0.00;0.00;;;2.90;99.90;;;;;;5057137;28;20056;-88
2022/03/31 01:46:22;;;;;;;0.00;0.00;;;2.90;99.90;;;;;;5056988;28;20048;-88
2022/03/31 01:48:48;;;;;;;0.00;0.00;;;3.40;99.90;;;;;;5056899;28;20090;-88
2022/03/31 01:51:14;;;;;;;0.00;0.00;;;3.10;99.90;;;;;;5073626;28;20044;-88
2022/03/31 01:53:44;;;;;;;0.00;0.00;;;3.00;99.90;;;;;;5056737;28;20037;-88
2022/03/31 01:56:09;;;;;;;0.00;0.00;;;2.80;99.90;;;;;;5073611;28;20517;-87
2022/03/31 01:58:36;;;;;;;0.00;0.00;;;2.80;99.90;;;;;;5073451;28;20072;-88
2022/03/31 02:01:02;;;;;;;0.08;0.00;;;3.00;99.90;;;;;;5056416;28;20053;-87
2022/03/31 02:03:31;;;;;;;0.00;0.00;;;2.80;99.90;;;;;;5072831;28;20056;-87
2022/03/31 02:05:59;;;;;;;0.00;0.00;;;2.80;99.90;;;;;;5057033;28;20052;-87
2022/03/31 02:08:25;;;;;;;0.00;0.00;;;2.80;99.90;;;;;;5056994;28;20088;-87
2022/03/31 02:10:51;;;;;;;0.00;0.00;;;2.70;99.90;;;;;;5056629;28;20040;-87
2022/03/31 02:13:16;;;;;;;0.00;0.00;;;2.80;99.90;;;;;;5072860;28;20044;-86
2022/03/31 02:15:43;;;;;;;0.00;0.00;;;2.80;99.90;;;;;;5073000;28;20492;-87
2022/03/31 02:18:09;;;;;;;0.00;0.00;;;3.50;99.90;;;;;;5073335;28;20087;-87
2022/03/31 02:20:35;;;;;;;0.00;0.00;;;2.90;99.90;;;;;;5056460;28;20550;-87
2022/03/31 02:23:01;;;;;;;0.00;0.00;;;2.70;99.90;;;;;;5056404;28;20123;-88
2022/03/31 02:25:32;;;;;;;0.00;0.00;;;2.70;99.90;;;;;;5056399;28;20139;-88
2022/03/31 02:27:58;;;;;;;0.00;0.00;;;2.40;99.90;;;;;;5056623;28;20129;-87
2022/03/31 02:30:24;;;;;;;0.00;0.00;;;2.60;99.90;;;;;;5073200;28;20052;-88
2022/03/31 02:32:50;;;;;;;0.00;0.00;;;2.70;99.90;;;;;;5072804;28;20080;-88
2022/03/31 02:35:17;;;;;;;0.05;0.05;;;2.70;99.90;;;;;;5073013;28;20055;-87
2022/03/31 02:37:43;;;;;;;0.00;0.00;;;3.00;99.90;;;;;;5056404;28;20044;-88
2022/03/31 02:40:08;;;;;;;0.00;0.00;;;2.70;99.90;;;;;;5056377;28;20206;-87
2022/03/31 02:42:35;;;;;;;0.10;0.10;;;2.70;99.90;;;;;;5072713;28;20377;-87
2022/03/31 02:45:05;;;;;;;0.00;0.00;;;2.70;99.90;;;;;;5056408;28;20396;-88
2022/03/31 02:47:30;;;;;;;0.52;0.05;;;2.70;99.90;;;;;;5055887;28;20534;-88
2022/03/31 02:49:58;;;;;;;0.00;0.00;;;2.80;99.90;;;;;;5056321;28;20040;-88
2022/03/31 02:52:23;;;;;;;0.00;0.00;;;2.80;99.90;;;;;;5072777;28;20048;-87
2022/03/31 02:57:33;;;;;;;0.00;0.00;;;2.80;99.90;;;;;;5072927;28;20514;-88
2022/03/31 02:59:59;;;;;;;0.00;0.00;;;2.90;99.90;;;;;;5072720;28;20048;-88
2022/03/31 03:02:25;;;;;;;0.00;0.00;;;3.60;99.90;;;;;;5072444;28;20050;-88
2022/03/31 03:04:51;;;;;;;0.00;0.00;;;2.90;99.90;;;;;;5071553;28;20084;-87
2022/03/31 03:07:16;;;;;;;0.00;0.00;;;2.90;99.90;;;;;;5055541;28;20040;-88
2022/03/31 03:09:42;;;;;;;0.00;0.00;;;3.00;99.90;;;;;;5055786;28;20102;-88
2022/03/31 03:12:09;;;;;;;0.00;0.00;;;2.90;99.90;;;;;;5055968;28;20131;-89
2022/03/31 03:14:34;;;;;;;0.00;0.00;;;2.90;99.90;;;;;;5055807;28;20044;-88
2022/03/31 03:17:00;;;;;;;0.00;0.00;;;3.00;99.90;;;;;;5055998;28;20044;-88
2022/03/31 03:19:26;;;;;;;0.00;0.00;;;3.00;99.90;;;;;;5072303;28;20041;-87
2022/03/31 03:21:52;;;;;;;0.28;0.22;;;2.90;99.90;;;;;;5055886;28;20048;-88
2022/03/31 03:24:17;;;;;;;0.00;0.00;;;2.90;99.90;;;;;;5072655;28;20053;-89
2022/03/31 03:26:43;;;;;;;0.00;0.00;;;3.50;99.90;;;;;;5072478;28;20079;-88
2022/03/31 03:29:09;;;;;;;0.00;0.00;;;3.00;99.90;;;;;;5055642;28;20048;-88
2022/03/31 03:31:35;;;;;;;0.00;0.00;;;3.00;99.90;;;;;;5072305;28;20049;-88
2022/03/31 03:34:01;;;;;;;0.10;0.10;;;3.00;99.90;;;;;;5055407;28;20036;-88
2022/03/31 03:36:27;;;;;;;0.00;0.00;;;3.00;99.90;;;;;;5055289;28;20040;-88
2022/03/31 03:38:53;;;;;;;0.00;0.00;;;3.00;99.90;;;;;;5055682;28;20060;-89
2022/03/31 03:41:18;;;;;;;0.00;0.00;;;3.00;99.90;;;;;;5072399;28;20380;-89
2022/03/31 03:43:44;;;;;;;0.10;0.00;;;2.90;99.90;;;;;;5072477;28;20123;-90
2022/03/31 03:46:10;;;;;;;0.00;0.00;;;3.10;99.90;;;;;;5055452;28;20040;-88
2022/03/31 03:48:36;;;;;;;0.00;0.00;;;2.90;99.90;;;;;;5055451;28;20041;-89
2022/03/31 03:51:03;;;;;;;0.00;0.00;;;3.10;99.90;;;;;;5055441;28;20393;-89
2022/03/31 03:53:28;;;;;;;0.00;0.00;;;2.90;99.90;;;;;;5055356;28;20045;-89
2022/03/31 03:55:54;;;;;;;0.10;0.10;;;3.00;99.90;;;;;;5055181;28;20049;-90
2022/03/31 03:58:20;;;;;;;0.17;0.17;;;3.00;99.90;;;;;;5071810;28;20046;-89
2022/03/31 04:00:46;;;;;;;0.00;0.00;;;3.50;99.90;;;;;;5055047;28;20055;-89
2022/03/31 04:03:12;;;;;;;0.00;0.00;;;3.00;99.90;;;;;;5072093;28;20083;-89
2022/03/31 04:05:38;;;;;;;0.00;0.00;;;2.90;99.90;;;;;;5072115;28;20080;-89
2022/03/31 04:08:04;;;;;;;0.20;0.20;;;3.10;99.90;;;;;;5055285;28;20045;-88
2022/03/31 04:10:32;;;;;;;0.32;0.22;;;3.00;99.90;;;;;;5072083;28;20392;-89
2022/03/31 04:12:58;;;;;;;0.00;0.00;;;3.00;99.90;;;;;;5055404;28;20047;-89
2022/03/31 04:15:23;;;;;;;0.00;0.00;;;3.00;99.90;;;;;;5056993;28;20036;-89
2022/03/31 04:17:52;;;;;;;0.00;0.00;;;2.90;99.90;;;;;;5076262;28;20041;-89
2022/03/31 04:20:18;;;;;;;0.00;0.00;;;3.00;99.90;;;;;;5058961;28;20048;-89
2022/03/31 04:22:44;;;;;;;0.00;0.00;;;3.10;99.90;;;;;;5058765;28;20067;-88
2022/03/31 04:25:11;;;;;;;0.00;0.00;;;3.00;99.90;;;;;;5075090;28;20036;-88
2022/03/31 04:27:38;;;;;;;0.00;0.00;;;3.00;99.90;;;;;;5058899;28;20055;-88
2022/03/31 04:30:06;;;;;;;0.00;0.00;;;3.00;99.90;;;;;;5075248;28;20094;-88
2022/03/31 04:32:32;;;;;;;0.30;0.28;;;3.00;99.90;;;;;;5074851;28;20565;-88
2022/03/31 04:34:58;;;;;;;0.00;0.00;;;3.10;99.90;;;;;;5075341;28;20377;-88
2022/03/31 04:37:24;;;;;;;0.10;0.00;;;3.00;99.90;;;;;;5058777;28;20044;-88
2022/03/31 04:39:49;;;;;;;0.00;0.00;;;2.90;99.90;;;;;;5075177;28;20098;-89
2022/03/31 04:42:15;;;;;;;0.00;0.00;;;3.10;99.90;;;;;;5059015;28;20049;-89
2022/03/31 04:44:41;;;;;;;0.30;0.00;;;3.00;99.90;;;;;;5058191;28;20102;-89
2022/03/31 04:47:08;;;;;;;0.20;0.20;;;2.60;99.90;;;;;;5058031;28;20135;-89
2022/03/31 04:49:34;;;;;;;0.00;0.00;;;3.00;99.90;;;;;;5058571;28;20098;-89
2022/03/31 04:52:00;;;;;;;0.00;0.00;;;3.20;99.90;;;;;;5058303;28;20049;-89
2022/03/31 04:54:26;;;;;;;0.00;0.00;;;3.00;99.90;;;;;;5058078;28;20040;-88
2022/03/31 04:56:52;;;;;;;0.00;0.00;;;2.90;99.90;;;;;;5074864;28;20044;-89
2022/03/31 04:59:18;;;;;;;0.25;0.25;;;2.90;99.90;;;;;;5075610;28;20083;-89
2022/03/31 05:01:44;;;;;;;0.55;0.40;;;2.90;99.90;;;;;;5074457;28;20557;-88
2022/03/31 05:04:12;;;;;;;0.00;0.00;;;2.90;99.90;;;;;;5058088;28;20064;-88
2022/03/31 05:06:38;;;;;;;0.00;0.00;;;2.90;99.90;;;;;;5074312;28;20485;-89
2022/03/31 05:09:06;;;;;;;0.00;0.00;;;2.90;99.90;;;;;;5057747;28;20121;-89
2022/03/31 05:11:32;;;;;;;0.10;0.10;;;2.90;99.90;;;;;;5057988;28;20507;-89
2022/03/31 05:13:57;;;;;;;0.00;0.00;;;3.20;99.90;;;;;;5057698;28;20049;-88
2022/03/31 05:16:23;;;;;;;0.00;0.00;;;2.90;99.90;;;;;;5057928;28;20570;-88
2022/03/31 05:18:49;;;;;;;0.00;0.00;;;2.80;99.90;;;;;;5057996;28;20044;-88
2022/03/31 05:21:15;;;;;;;0.10;0.00;;;2.90;99.90;;;;;;5074630;28;20086;-89
2022/03/31 05:23:41;;;;;;;0.10;0.10;;;2.90;99.90;;;;;;5057703;28;20049;-88
2022/03/31 05:26:07;;;;;;;0.00;0.00;;;2.90;99.90;;;;;;5074084;28;20047;-89
2022/03/31 05:28:32;;;;;;;0.00;0.00;;;2.90;99.90;;;;;;5057336;28;20044;-89
2022/03/31 05:30:58;;;;;;;0.00;0.00;;;2.90;99.90;;;;;;5057828;28;20052;-90
2022/03/31 05:33:28;;;;;;;0.00;0.00;;;2.80;99.90;;;;;;5058045;28;20457;-89
2022/03/31 05:35:54;;;;;;;0.05;0.05;;;2.90;99.90;;;;;;5057752;28;20055;-90
2022/03/31 05:38:25;;;;;;;0.00;0.00;;;2.90;99.90;;;;;;5058490;28;20105;-89
2022/03/31 05:40:51;;;;;;;0.80;0.00;;;2.90;99.90;;;;;;5074234;28;20044;-91
2022/03/31 05:43:17;;;;;;;0.20;0.20;;;2.90;99.90;;;;;;5074396;28;20048;-90
2022/03/31 05:45:43;;;;;;;3.30;0.22;;;2.90;99.90;;;;;;5057151;28;20139;-89
2022/03/31 05:48:08;;;;;;;0.00;0.00;;;2.90;99.90;;;;;;5057207;28;20068;-89
2022/03/31 05:50:34;;;;;;;0.00;0.00;;;3.60;99.90;;;;;;5073761;28;20075;-90
2022/03/31 05:53:00;;;;;;;0.10;0.08;;;3.00;99.90;;;;;;5073496;28;20051;-89
2022/03/31 05:55:28;;;;;;;0.08;0.00;;;3.00;99.90;;;;;;5057243;28;20048;-89
2022/03/31 05:57:54;;;;;;;0.00;0.00;;;3.00;99.90;;;;;;5073869;28;20480;-89
2022/03/31 06:00:21;;;;;;;0.25;0.10;;;2.90;99.90;;;;;;5057091;28;20139;-89
2022/03/31 06:02:48;;;;;;;0.20;0.20;;;2.90;99.90;;;;;;5057017;28;20135;-90
2022/03/31 06:05:15;;;;;;;0.00;0.00;;;3.00;99.90;;;;;;5057051;28;20045;-90
2022/03/31 06:07:44;;;;;;;0.10;0.10;;;2.90;99.90;;;;;;5073791;28;20056;-89
2022/03/31 06:10:09;;;;;;;0.00;0.00;;;3.00;99.90;;;;;;5057370;28;20131;-91
2022/03/31 06:12:36;;;;;;;0.00;0.00;;;2.90;99.90;;;;;;5057164;28;20148;-89
2022/03/31 06:15:06;;;;;;;0.00;0.00;;;2.90;99.90;;;;;;5057035;28;20090;-90
2022/03/31 06:17:33;;;;;;;0.00;0.00;;;2.90;99.90;;;;;;5073177;28;20056;-92
2022/03/31 06:19:58;;;;;;;0.00;0.00;;;3.50;99.90;;;;;;5057152;28;20045;-91
2022/03/31 06:22:24;;;;;;;0.00;0.00;;;3.30;99.90;;;;;;5073263;28;20044;-90
2022/03/31 06:24:50;;;;;;;0.08;0.08;;;2.90;99.90;;;;;;5056514;28;20089;-90
2022/03/31 06:27:16;;;;;;;0.00;0.00;;;3.10;99.90;;;;;;5056787;28;20234;-90
2022/03/31 06:29:46;;;;;;;0.28;0.28;;;2.90;99.90;;;;;;5056547;28;20106;-90
2022/03/31 06:32:13;;;;;;;1.02;0.35;;;4.00;99.90;;;;;;5056834;28;20063;-91
2022/03/31 06:34:39;;;;;;;0.00;0.00;;;3.00;99.90;;;;;;5056650;28;20507;-89
2022/03/31 06:37:05;;;;;;;0.05;0.05;;;3.30;99.90;;;;;;5056511;28;20041;-90
2022/03/31 06:39:31;;;;;;;0.15;0.13;;;2.90;99.90;;;;;;5055356;28;20068;-89
2022/03/31 06:41:57;;;;;;;0.10;0.10;;;3.00;99.90;;;;;;5056095;28;20447;-90
2022/03/31 06:44:23;;;;;;;0.10;0.10;;;2.90;99.90;;;;;;5056747;28;20048;-90
2022/03/31 06:46:48;;;;;;;0.00;0.00;;;2.90;99.90;;;;;;5056327;28;20047;-90
2022/03/31 06:49:14;;;;;;;0.20;0.20;;;2.90;99.90;;;;;;5056036;28;20040;-89
2022/03/31 06:51:43;;;;;;;0.00;0.00;;;2.90;99.90;;;;;;5056112;28;20128;-89
2022/03/31 06:54:09;;;;;;;0.05;0.05;;;2.90;99.90;;;;;;5055497;28;20114;-89
2022/03/31 06:56:35;;;;;;;0.22;0.20;;;3.00;99.90;;;;;;5055993;28;20048;-88
2022/03/31 06:59:02;;;;;;;0.20;0.10;;;3.00;99.90;;;;;;5071905;28;20110;-89
2022/03/31 07:01:28;;;;;;;0.00;0.00;;;2.90;99.90;;;;;;5055938;28;20052;-88
2022/03/31 07:03:54;;;;;;;0.85;0.30;;;3.00;99.90;;;;;;5072118;28;20052;-89
2022/03/31 07:06:22;;;;;;;0.00;0.00;;;3.00;99.90;;;;;;5072515;28;20083;-89
2022/03/31 07:08:48;;;;;;;1.75;0.10;;;3.00;99.90;;;;;;5071419;28;20492;-88
2022/03/31 07:11:14;;;;;;;0.10;0.03;;;4.70;99.90;;;;;;5056213;28;20206;-88
2022/03/31 07:13:40;;;;;;;1.15;0.20;;;3.00;99.90;;;;;;5055683;28;20131;-88
2022/03/31 07:16:06;;;;;;;0.00;0.00;;;3.00;99.90;;;;;;5055785;28;20476;-88
2022/03/31 07:18:32;;;;;;;0.00;0.00;;;3.00;99.90;;;;;;5055696;28;20055;-88
2022/03/31 07:20:58;;;;;;;0.57;0.08;;;3.10;99.90;;;;;;5055684;28;20045;-88
2022/03/31 07:23:25;;;;;;;0.10;0.10;;;3.10;99.90;;;;;;5072390;28;20396;-88
2022/03/31 07:25:56;;;;;;;0.00;0.00;;;3.30;99.90;;;;;;5055639;28;20099;-89
2022/03/31 07:28:23;;;;;;;0.17;0.17;;;3.50;99.90;;;;;;5055942;28;20137;-89
2022/03/31 07:30:49;;;;;;;0.28;0.28;;;3.20;99.90;;;;;;5055469;28;20083;-88
2022/03/31 07:33:15;;;;;;;0.00;0.00;;;3.20;99.90;;;;;;5055409;28;20127;-89
2022/03/31 07:35:42;;;;;;;0.00;0.00;;;3.20;99.90;;;;;;5072179;28;20136;-88
2022/03/31 07:38:08;;;;;;;0.00;0.00;;;3.20;99.90;;;;;;5055273;28;20048;-88
2022/03/31 07:40:36;;;;;;;1.65;0.17;;;3.50;99.90;;;;;;5055581;28;20055;-88
2022/03/31 07:43:04;;;;;;;0.00;0.00;;;3.20;99.90;;;;;;5072145;28;20049;-88
2022/03/31 07:45:38;;;;;;;0.00;0.00;;;3.70;99.90;;;;;;5072182;28;20129;-88
2022/03/31 07:48:05;;;;;;;0.00;0.00;;;3.20;99.90;;;;;;5072259;28;20408;-87
2022/03/31 07:50:31;;;;;;;0.40;0.40;;;3.20;99.90;;;;;;5056784;28;20067;-86
2022/03/31 07:52:57;;;;;;;0.90;0.10;;;3.20;99.90;;;;;;5058924;28;20468;-86
2022/03/31 07:55:24;;;;;;;0.10;0.10;;;4.40;99.90;;;;;;5075562;28;20455;-87
2022/03/31 07:57:50;;;;;;;1.55;0.17;;;3.30;99.90;;;;;;5075638;28;20106;-86
2022/03/31 08:00:17;;;;;;;0.20;0.10;;;3.30;99.90;;;;;;5075976;28;20496;-86
2022/03/31 08:02:45;;;;;;;0.43;0.43;;;3.30;99.90;;;;;;5059037;28;20131;-87
2022/03/31 08:05:14;;;;;;;0.00;0.00;;;3.40;99.90;;;;;;5058877;28;20064;-86
2022/03/31 08:07:40;;;;;;;0.28;0.28;;;3.30;99.90;;;;;;5075909;28;20511;-86
2022/03/31 08:10:08;;;;;;;0.17;0.17;;;3.40;99.90;;;;;;5075374;28;20080;-86
2022/03/31 08:12:34;;;;;;;0.17;0.15;;;3.40;99.90;;;;;;5075142;28;20551;-85
2022/03/31 08:15:00;;;;;;;0.00;0.00;;;3.40;99.90;;;;;;5058642;28;20124;-86
2022/03/31 08:17:27;;;;;;;0.00;0.00;;;3.40;99.90;;;;;;5075483;28;20127;-85
2022/03/31 08:19:53;;;;;;;0.00;0.00;;;3.40;99.90;;;;;;5058898;28;20106;-86
2022/03/31 08:22:19;;;;;;;0.45;0.08;;;3.40;99.90;;;;;;5059042;28;20500;-86
2022/03/31 08:24:44;;;;;;;0.15;0.10;;;3.50;99.90;;;;;;5074931;28;20040;-85
2022/03/31 08:27:10;;;;;;;0.15;0.10;;;4.40;99.90;;;;;;5074572;28;20056;-85
2022/03/31 08:29:37;;;;;;;7.63;1.38;;;3.50;99.90;;;;;;5058712;28;20060;-85
2022/03/31 08:32:04;;;;;;;0.20;0.13;;;4.20;99.90;;;;;;5058494;28;20093;-85
2022/03/31 08:34:30;;;;;;;0.05;0.05;;;3.50;99.90;;;;;;5059037;28;20044;-86
2022/03/31 08:36:56;;;;;;;0.30;0.30;;;3.50;99.90;;;;;;5074874;28;20041;-85
2022/03/31 08:39:21;;;;;;;0.95;0.45;;;3.60;99.90;;;;;;5058126;28;20396;-85
2022/03/31 08:41:47;;;;;;;0.85;0.63;;;3.60;99.90;;;;;;5058058;28;20044;-85
2022/03/31 08:44:17;;;;;;;0.10;0.10;;;3.60;99.90;;;;;;5058178;28;20052;-85
2022/03/31 08:46:48;;;;;;;0.32;0.28;;;3.70;99.90;;;;;;5075002;28;20052;-85
2022/03/31 08:49:13;;;;;;;0.20;0.20;;;3.60;99.90;;;;;;5058291;28;20051;-86
2022/03/31 08:51:42;;;;;;;0.30;0.30;;;3.60;99.90;;;;;;5058634;28;20147;-85
2022/03/31 08:54:08;;;;;;;1.05;0.32;;;3.60;99.90;;;;;;5074589;28;20545;-86
2022/03/31 08:56:34;;;;;;;0.32;0.30;;;3.60;99.90;;;;;;5058072;28;20062;-85
2022/03/31 08:59:02;;;;;;;0.30;0.20;;;3.60;99.90;;;;;;5074927;28;20045;-86
2022/03/31 09:01:30;;;;;;;0.73;0.40;;;3.60;99.90;;;;;;5057020;28;20412;-86
2022/03/31 09:03:56;;;;;;;0.13;0.13;;;3.60;99.90;;;;;;5057656;28;20399;-85
2022/03/31 09:06:23;;;;;;;0.00;0.00;;;3.70;99.90;;;;;;5057700;28;20146;-86
2022/03/31 09:09:04;;;;;;;1.75;0.40;;;3.70;99.90;;;;;;5057859;28;20477;-86
2022/03/31 09:11:31;;;;;;;0.15;0.15;;;3.70;99.90;;;;;;5057903;28;20051;-86
2022/03/31 09:13:59;;;;;;;2.35;0.65;;;3.70;99.90;;;;;;5074150;28;20610;-86
2022/03/31 09:16:36;;;;;;;0.10;0.05;;;3.80;99.90;;;;;;5074351;28;20396;-85
2022/03/31 09:19:10;;;;;;;0.45;0.45;;;3.80;99.90;;;;;;5057773;28;20149;-84
2022/03/31 09:21:57;;;;;;;0.05;0.03;;;3.80;99.90;;;;;;5074653;28;20063;-85
2022/03/31 09:24:27;;;;;;;0.30;0.15;;;3.80;99.90;;;;;;5057808;28;20059;-86
2022/03/31 09:26:54;;;;;;;0.10;0.10;;;3.80;99.90;;;;;;5074239;28;20144;-86
2022/03/31 09:29:25;;;;;;;0.40;0.35;;;3.80;99.90;;;;;;5056929;28;20511;-85
2022/03/31 09:31:52;;;;;;;0.00;0.00;;;3.90;99.90;;;;;;5057225;28;20041;-85
2022/03/31 09:34:18;;;;;;;0.00;0.00;;;3.80;99.90;;;;;;5057150;28;20123;-86
2022/03/31 09:36:49;;;;;;;0.00;0.00;;;3.80;99.90;;;;;;5057008;28;20045;-85
2022/03/31 09:39:17;;;;;;;0.20;0.20;;;4.20;99.90;;;;;;5073665;28;20044;-85
2022/03/31 09:41:47;;;;;;;0.10;0.00;;;3.80;99.90;;;;;;5073931;28;20400;-85
2022/03/31 09:44:22;;;;;;;0.00;0.00;;;3.70;99.90;;;;;;5073967;28;20082;-87
2022/03/31 09:46:48;;;;;;;0.10;0.10;;;3.70;99.90;;;;;;5074067;28;20052;-88
2022/03/31 09:49:22;;;;;;;0.00;0.00;;;3.60;99.90;;;;;;5057643;28;20044;-88
2022/03/31 09:51:59;;;;;;;0.00;0.00;;;3.60;99.90;;;;;;5057948;28;20507;-90
2022/03/31 09:54:30;;;;;;;0.00;0.00;;;3.60;99.90;;;;;;5057863;28;20044;-92
2022/03/31 09:56:58;;;;;;;0.00;0.00;;;3.50;99.90;;;;;;5057972;28;20055;-92
2022/03/31 09:59:35;;;;;;;0.00;0.00;;;3.40;99.90;;;;;;5057892;28;20056;-90
2022/03/31 10:02:05;;;;;;;0.10;0.10;;;3.40;99.90;;;;;;5057354;28;20048;-90
2022/03/31 10:04:35;;;;;;;1.35;1.08;;;3.40;99.90;;;;;;5056981;28;20067;-90
2022/03/31 10:07:03;;;;;;;0.05;0.00;;;3.40;99.90;;;;;;5074130;28;20039;-91
2022/03/31 10:09:32;;;;;;;0.00;0.00;;;3.70;99.90;;;;;;5057480;28;20088;-89
2022/03/31 10:12:05;;;;;;;0.10;0.10;;;2.70;99.90;;;;;;5073330;28;20045;-88
2022/03/31 10:14:59;;;;;;;0.00;0.00;;;3.10;99.90;;;;;;5073115;28;20388;-89
2022/03/31 10:17:30;;;;;;;0.00;0.00;;;3.10;99.90;;;;;;5056719;28;20040;-89
2022/03/31 10:20:13;;;;;;;0.00;0.00;;;3.10;99.90;;;;;;5056464;28;20044;-90
2022/03/31 10:25:36;;;;;;;0.00;0.00;;;3.00;99.90;;;;;;5073584;28;20098;-89
2022/03/31 10:28:11;;;;;;;0.00;0.00;;;3.10;99.90;;;;;;5056608;28;20156;-89
2022/03/31 10:30:37;;;;;;;0.00;0.00;;;2.80;99.90;;;;;;5056923;28;20056;-89
2022/03/31 10:33:07;;;;;;;0.00;0.00;;;2.80;99.90;;;;;;5056865;28;20040;-90
2022/03/31 10:35:34;;;;;;;0.00;0.00;;;2.70;99.90;;;;;;5057378;28;20051;-91
2022/03/31 10:38:23;;;;;;;0.00;0.00;;;2.70;99.90;;;;;;5056755;28;20044;-91
2022/03/31 10:40:59;;;;;;;0.10;0.10;;;2.70;99.90;;;;;;5056872;28;20044;-90
2022/03/31 10:43:31;;;;;;;0.00;0.00;;;2.60;99.90;;;;;;5056960;28;20148;-90
2022/03/31 10:46:00;;;;;;;0.00;0.00;;;2.60;99.90;;;;;;5056902;28;20186;-91
2022/03/31 10:48:28;;;;;;;0.00;0.00;;;2.70;99.90;;;;;;5056709;28;20044;-90
2022/03/31 10:51:14;;;;;;;0.00;0.00;;;3.00;99.90;;;;;;5056713;28;20048;-89
2022/03/31 10:53:44;;;;;;;0.00;0.00;;;2.60;99.90;;;;;;5056227;28;20045;-89
2022/03/31 10:56:27;;;;;;;1.25;0.55;;;4.10;99.90;;;;;;5056238;28;20052;-88
2022/03/31 10:58:55;;;;;;;1.08;0.52;;;2.60;99.90;;;;;;5056564;28;20052;-87
2022/03/31 11:01:23;;;;;;;0.03;0.03;;;2.70;99.90;;;;;;5056296;28;20109;-87
2022/03/31 11:03:50;;;;;;;0.00;0.00;;;2.60;99.90;;;;;;5072246;28;20044;-87
2022/03/31 11:06:17;;;;;;;0.00;0.00;;;2.70;99.90;;;;;;5055553;28;20048;-87
2022/03/31 11:08:48;;;;;;;0.00;0.00;;;2.70;99.90;;;;;;5072854;28;20055;-87
2022/03/31 11:11:30;;;;;;;0.00;0.00;;;2.70;99.90;;;;;;5056016;28;20071;-87
2022/03/31 11:13:57;;;;;;;0.00;0.00;;;2.80;99.90;;;;;;5072255;28;20127;-86
2022/03/31 11:16:37;;;;;;;0.00;0.00;;;2.80;99.90;;;;;;5055785;28;20565;-86
2022/03/31 11:19:04;;;;;;;0.00;0.00;;;2.80;99.90;;;;;;5056025;28;20068;-86
2022/03/31 11:21:36;;;;;;;0.00;0.00;;;3.00;99.90;;;;;;5055540;28;20055;-86
2022/03/31 11:24:03;;;;;;;0.00;0.00;;;3.00;99.90;;;;;;5072132;28;20075;-85
2022/03/31 11:26:30;;;;;;;0.00;0.00;;;3.00;99.90;;;;;;5058959;28;20446;-85
2022/03/31 11:28:59;;;;;;;0.05;0.05;;;3.10;99.90;;;;;;5076651;28;20044;-85
2022/03/31 11:31:25;;;;;;;0.00;0.00;;;3.10;99.90;;;;;;5059733;28;20048;-85
2022/03/31 11:33:51;;;;;;;0.00;0.00;;;3.00;99.90;;;;;;5059356;28;20047;-85
2022/03/31 11:36:18;;;;;;;0.00;0.00;;;3.20;99.90;;;;;;5076527;28;20087;-85
2022/03/31 11:38:58;;;;;;;0.00;0.00;;;3.60;99.90;;;;;;5059515;28;20080;-85
2022/03/31 11:41:24;;;;;;;0.00;0.00;;;3.50;99.90;;;;;;5076152;28;20426;-85
2022/03/31 11:43:53;;;;;;;0.10;0.10;;;3.00;99.90;;;;;;5075899;28;20045;-85
2022/03/31 11:46:19;;;;;;;0.00;0.00;;;3.20;99.90;;;;;;5059520;28;20079;-86
2022/03/31 11:48:46;;;;;;;0.00;0.00;;;3.20;99.90;;;;;;5058485;28;20090;-85
2022/03/31 11:51:13;;;;;;;0.00;0.00;;;3.10;99.90;;;;;;5074714;28;20526;-84
2022/03/31 11:53:41;;;;;;;0.57;0.17;;;3.30;99.90;;;;;;5073543;28;20099;-84
2022/03/31 11:56:11;;;;;;;0.00;0.00;;;3.30;99.90;;;;;;5075672;28;20441;-85
2022/03/31 11:58:52;;;;;;;0.00;0.00;;;3.30;99.90;;;;;;5076180;28;20098;-84
2022/03/31 12:01:32;;;;;;;0.00;0.00;;;3.30;99.90;;;;;;5059089;28;20405;-84
2022/03/31 12:03:58;;;;;;;0.00;0.00;;;3.90;99.90;;;;;;5059099;28;20084;-84
2022/03/31 12:06:24;;;;;;;0.15;0.13;;;3.30;99.90;;;;;;5059091;28;20052;-84
2022/03/31 12:08:49;;;;;;;1.00;0.10;;;3.40;99.90;;;;;;5075420;28;20113;-84
2022/03/31 12:11:17;;;;;;;0.00;0.00;;;3.30;99.90;;;;;;5075392;28;20072;-84
2022/03/31 12:13:53;;;;;;;0.00;0.00;;;3.30;99.90;;;;;;5059303;28;20093;-84
2022/03/31 12:16:21;;;;;;;0.00;0.00;;;3.40;99.90;;;;;;5058980;28;20105;-84
2022/03/31 12:18:55;;;;;;;0.00;0.00;;;3.40;99.90;;;;;;5059019;28;20068;-84
2022/03/31 12:21:21;;;;;;;0.30;0.20;;;3.50;99.90;;;;;;5058819;28;20052;-84
2022/03/31 12:23:48;;;;;;;0.00;0.00;;;3.40;99.90;;;;;;5058279;28;20290;-84
2022/03/31 12:26:20;;;;;;;0.20;0.20;;;3.40;99.90;;;;;;5058296;28;20044;-84
2022/03/31 12:28:47;;;;;;;1.10;0.08;;;3.50;99.90;;;;;;5058829;28;20492;-84
2022/03/31 12:31:26;;;;;;;0.00;0.00;;;3.00;99.90;;;;;;5075180;28;20041;-84
2022/03/31 12:33:53;;;;;;;15.10;0.45;;;3.50;99.90;;;;;;5058252;28;20098;-84
2022/03/31 12:36:33;;;;;;;0.65;0.25;;;3.50;99.90;;;;;;5074571;28;20048;-84
2022/03/31 12:39:01;;;;;;;0.47;0.10;;;3.50;99.90;;;;;;5058653;28;20067;-84
2022/03/31 12:41:38;;;;;;;0.00;0.00;;;3.90;99.90;;;;;;5075280;28;20051;-84
2022/03/31 12:44:09;;;;;;;0.30;0.30;;;3.60;99.90;;;;;;5074937;28;20052;-84
2022/03/31 12:46:42;;;;;;;0.20;0.15;;;3.60;99.90;;;;;;5058337;28;20113;-85
2022/03/31 12:49:15;;;;;;;0.20;0.20;;;3.70;99.90;;;;;;5075087;28;20084;-85
2022/03/31 12:51:43;;;;;;;0.32;0.30;;;3.70;99.90;;;;;;5074497;28;20041;-85
2022/03/31 12:54:39;;;;;;;0.15;0.15;;;3.70;99.90;;;;;;5057821;28;20373;-85
2022/03/31 12:57:12;;;;;;;1.98;0.32;;;4.10;99.90;;;;;;5037268;28;20060;-84
2022/03/31 12:59:38;;;;;;;0.40;0.30;;;3.80;99.90;;;;;;5030920;28;20044;-85
2022/03/31 13:02:09;;;;;;;1.15;0.73;;;3.80;99.90;;;;;;5008917;28;20504;-84
2022/03/31 13:04:42;;;;;;;1.30;0.60;;;3.90;99.90;;;;;;5025813;28;20544;-84
2022/03/31 13:07:19;;;;;;;0.15;0.00;;;3.90;99.90;;;;;;5028923;28;20041;-84